Aviation Digital Data Service (ADDS)

Output produced by METARs form (0002 UTC 01 July 2015)
found at http://www.aviationweather.gov/adds/metars/
 
KCXY 302356Z 17004KT 10SM CLR 24/21 A2979 RMK AO2 LTG DSNT SE RAB08E34 SLP085 P0000 60000 T02440206 10283 20244 53001
KCXY 302335Z 15007KT 10SM SCT029 SCT110 25/20 A2979 RMK AO2 LTG DSNT SE RAB08E34 P0000 T02500200
KCXY 302328Z 15006KT 10SM -RA BKN027 BKN075 BKN100 25/20 A2979 RMK AO2 RAB08 P0000 T02500200
KCXY 302256Z 15009KT 10SM SCT060 BKN075 26/19 A2979 RMK AO2 SLP087 T02610189
KCXY 302156Z 22003KT 10SM CLR 27/18 A2978 RMK AO2 LTG DSNT E AND SW SLP082 T02720183
KCXY 302056Z 21008KT 10SM FEW110 28/17 A2978 RMK AO2 LTG DSNT E AND SE SLP083 T02780172 58018
KCXY 302049Z 20007KT 10SM FEW110 27/18 A2978 RMK AO2 LTG DSNT E AND SE T02720178
KCXY 302009Z 20009KT 10SM VCTS CLR 28/19 A2980 RMK AO2 LTG DSNT S T02830189
KCXY 301956Z 00000KT 10SM FEW060 28/19 A2980 RMK AO2 SLP089 T02830194
KCXY 301856Z 33007KT 10SM SCT038 SCT046 BKN070 27/18 A2983 RMK AO2 LTG DSNT SW SLP098 T02670183
KCXY 301812Z 23009KT 10SM FEW036 28/19 A2983 RMK AO2 T02830194
KCXY 301756Z 19007KT 10SM VCTS FEW035 28/20 A2984 RMK AO2 SLP101 T02780200 10283 20206 58018
KCXY 301741Z 22010KT 10SM VCTS FEW030 SCT034 BKN050 28/20 A2984 RMK AO2 T02780200
KCXY 301656Z 21006KT 10SM SCT031 BKN100 26/19 A2986 RMK AO2 LTG DSNT E SLP111 T02560194
KCXY 301641Z 19010G16KT 10SM FEW026 FEW040 27/21 A2987 RMK AO2 LTG DSNT E T02720206
KCXY 301556Z 17008KT 10SM SCT023 BKN028 BKN035 26/20 A2988 RMK AO2 SLP118 T02610200
KCXY 301514Z 17009KT 10SM SCT026 SCT060 26/20 A2989 RMK AO2 T02560200
KCXY 301456Z 18008KT 10SM BKN022 BKN028 OVC055 24/19 A2989 RMK AO2 SLP119 T02440189 58007
KCXY 301356Z 12005KT 10SM FEW015 BKN019 OVC075 23/19 A2990 RMK AO2 SLP124 T02280189
KCXY 301314Z 11004KT 10SM BKN015 OVC021 22/18 A2990 RMK AO2 T02170183
KCXY 301256Z 04003KT 10SM OVC014 21/18 A2991 RMK AO2 SLP127 T02110178
KCXY 301227Z 05004KT 10SM OVC014 21/18 A2991 RMK AO2 T02110178
KCXY 301156Z 08005KT 10SM OVC018 21/17 A2991 RMK AO2 SLP127 60000 T02060172 10217 20194 53004
KCXY 301125Z 07006KT 10SM BKN018 BKN075 BKN090 21/17 A2991 RMK AO2 T02060172
KCXY 301115Z 08005KT 10SM SCT018 BKN080 20/17 A2991 RMK AO2 T02000172
KCXY 301056Z 08005KT 10SM OVC018 21/17 A2990 RMK AO2 SLP126 T02060167
KCXY 301014Z AUTO 09005KT 10SM BKN019 BKN070 OVC110 20/16 A2990 RMK AO2 T02000161
KCXY 300956Z AUTO 09005KT 10SM BKN070 BKN080 OVC110 19/16 A2990 RMK AO2 RAE05 SLP123 P0000 T01940161
KCXY 300856Z AUTO 11003KT 10SM -RA OVC070 20/15 A2990 RMK AO2 RAB55 SLP123 P0000 60000 T02000150 56006
KCXY 300756Z AUTO 10005KT 10SM CLR 21/15 A2990 RMK AO2 SLP124 T02060150
KCXY 300656Z AUTO 15007KT 10SM OVC100 22/14 A2990 RMK AO2 SLP123 T02170139
KCXY 300556Z AUTO 16005KT 10SM BKN075 OVC090 22/13 A2992 RMK AO2 SLP129 T02170128 10239 20206 58003
KCXY 300456Z AUTO 09007KT 10SM BKN090 21/14 A2992 RMK AO2 SLP132 T02060144 402720133
KCXY 300356Z AUTO 10004KT 10SM BKN100 21/14 A2993 RMK AO2 SLP134 T02060139
KCXY 300256Z AUTO 19005KT 10SM SCT110 24/11 A2993 RMK AO2 SLP133 T02390111 50006
KCXY 300156Z AUTO 20006KT 10SM SCT120 24/12 A2993 RMK AO2 SLP134 T02390117
KCXY 300056Z AUTO 20005KT 10SM SCT120 23/12 A2992 RMK AO2 SLP132 T02330122
KCXY 292356Z 20006KT 10SM FEW090 24/13 A2991 RMK AO2 SLP127 T02390133 10272 20239 53001
KCXY 292256Z 19005KT 10SM SCT060 BKN100 24/14 A2990 RMK AO2 SLP126 T02440139
KCXY 292156Z 21009KT 10SM CLR 26/14 A2990 RMK AO2 SLP125 T02560139
KCXY 292056Z 22007KT 10SM FEW060 26/14 A2991 RMK AO2 SLP126 T02610139 58007
KCXY 291956Z 26007G15KT 10SM FEW055 26/13 A2992 RMK AO2 SLP130 T02610133
KCXY 291856Z 23010KT 10SM BKN055 BKN070 26/14 A2993 RMK AO2 SLP134 T02560139
KCXY 291756Z VRB06KT 10SM SCT050 26/13 A2993 RMK AO2 SLP133 T02560133 10261 20178 56007
KCXY 291656Z 26008KT 10SM SCT050 25/13 A2993 RMK AO2 SLP135 T02500128
KCXY 291556Z 26006KT 10SM FEW044 23/12 A2994 RMK AO2 SLP137 T02330122
KCXY 291456Z 26006KT 10SM FEW047 22/12 A2995 RMK AO2 SLP141 T02220122 50000
KCXY 291356Z 26005KT 10SM CLR 21/12 A2996 RMK AO2 SLP143 T02110117
KCXY 291256Z 30008KT 260V330 10SM CLR 20/12 A2996 RMK AO2 SLP143 T02000117